Depesza METAR lotniska Warszawa-Okęcie

METAR = EPWA 301730Z 03002KT CAVOK 15/12 Q1024 NOSIG

STACJA......... EPWA - Warszawa-Okęcie (WAW)
POMIAR......... Tue Sep 30, 19:30 CEST
TERAZ.......... Tue Sep 30, 19:51 CEST
CZAS........... 21 min temu
WIATR.......... północno północno-wschodni (NNE) z prędkością 4 km/h
WIDZIALNOŚĆ.. powyżej 10 kilometrów
CHMURY......... bezchmurne niebo
TEMPERATURA.... 15°C
T.PUNKTU ROSY.. 12°C
WILGOTNOŚĆ... 82%
CIŚNIENIE..... 1024 hPa
PROGNOZA....... bez nagłych zmian w ciągu 2h

Depesza METAR lotniska Kraków-Balice

METAR = EPKK 301730Z 00000KT CAVOK 16/15 Q1024

STACJA......... EPKK - Kraków-Balice (KRK)
POMIAR......... Tue Sep 30, 19:30 CEST
TERAZ.......... Tue Sep 30, 19:51 CEST
CZAS........... 21 min temu
WIATR.......... bezwietrznie
WIDZIALNOŚĆ.. powyżej 10 kilometrów
CHMURY......... bezchmurne niebo
TEMPERATURA.... 16°C
T.PUNKTU ROSY.. 15°C
WILGOTNOŚĆ... 94%
CIŚNIENIE..... 1024 hPa

Depesza METAR lotniska Łódź-Lublinek

METAR = EPLL 301730Z 00000KT 4000 -RA BR BKN011 16/15 Q1024

STACJA......... EPLL - Łódź-Lublinek (LCJ)
POMIAR......... Tue Sep 30, 19:30 CEST
TERAZ.......... Tue Sep 30, 19:51 CEST
CZAS........... 21 min temu
WIATR.......... bezwietrznie
WIDZIALNOŚĆ.. 4000 metrów
WARUNKI........ słaby: deszcz  & zamglenie 
CHMURY......... zachmurzenie średnie (5/8-7/8)
TEMPERATURA.... 16°C
T.PUNKTU ROSY.. 15°C
WILGOTNOŚĆ... 94%
CIŚNIENIE..... 1024 hPa

Depesza METAR lotniska Wrocław-Strachowice

METAR = EPWR 301730Z 26004KT CAVOK 19/16 Q1024

STACJA......... EPWR - Wrocław-Strachowice (WRO)
POMIAR......... Tue Sep 30, 19:30 CEST
TERAZ.......... Tue Sep 30, 19:51 CEST
CZAS........... 21 min temu
WIATR.......... zachodni (W) z prędkością 7 km/h
WIDZIALNOŚĆ.. powyżej 10 kilometrów
CHMURY......... bezchmurne niebo
TEMPERATURA.... 19°C
T.PUNKTU ROSY.. 16°C
WILGOTNOŚĆ... 83%
CIŚNIENIE..... 1024 hPa

Depesza METAR lotniska Katowice-Pyrzowice

METAR = EPKT 301730Z VRB02KT 6000 NSC 18/14 Q1024

STACJA......... EPKT - Katowice-Pyrzowice (KTW)
POMIAR......... Tue Sep 30, 19:30 CEST
TERAZ.......... Tue Sep 30, 19:51 CEST
CZAS........... 21 min temu
WIATR.......... zmienny z prędkością 4 km/h
WIDZIALNOŚĆ.. 6000 metrów
CHMURY......... brak istotnych chmur
TEMPERATURA.... 18°C
T.PUNKTU ROSY.. 14°C
WILGOTNOŚĆ... 78%
CIŚNIENIE..... 1024 hPa

Depesza METAR lotniska Gdańsk

METAR = EPGD 301730Z 06005KT 360V090 CAVOK 13/10 Q1026

STACJA......... EPGD - Gdańsk im. Lecha Wałęsy (GDN)
POMIAR......... Tue Sep 30, 19:30 CEST
TERAZ.......... Tue Sep 30, 19:51 CEST
CZAS........... 21 min temu
WIATR.......... wschodni północno-wschodni (ENE) z prędkością 9 km/h
WIDZIALNOŚĆ.. powyżej 10 kilometrów
CHMURY......... bezchmurne niebo
TEMPERATURA.... 13°C
T.PUNKTU ROSY.. 10°C
WILGOTNOŚĆ... 82%
CIŚNIENIE..... 1026 hPa

Depesza METAR lotniska Poznań-Ławica

METAR = EPPO 301730Z VRB02KT 1500 BR BKN023 16/16 Q1023

STACJA......... EPPO - Poznań-Ławica (POZ)
POMIAR......... Tue Sep 30, 19:30 CEST
TERAZ.......... Tue Sep 30, 19:51 CEST
CZAS........... 21 min temu
WIATR.......... zmienny z prędkością 4 km/h
WIDZIALNOŚĆ.. 1500 metrów
WARUNKI........ zamglenie 
CHMURY......... zachmurzenie średnie (5/8-7/8)
TEMPERATURA.... 16°C
T.PUNKTU ROSY.. 16°C
WILGOTNOŚĆ... 100%
CIŚNIENIE..... 1023 hPa

Depesza METAR lotniska Rzeszów-Jasionka

METAR = EPRZ 301730Z 26005KT 9999 FEW040 17/14 Q1024

STACJA......... EPRZ - Rzeszów-Jasionka (RZE)
POMIAR......... Tue Sep 30, 19:30 CEST
TERAZ.......... Tue Sep 30, 19:51 CEST
CZAS........... 21 min temu
WIATR.......... zachodni (W) z prędkością 9 km/h
WIDZIALNOŚĆ.. powyżej 10 kilometrów
CHMURY......... zachmurzenie niewielkie (1/8-2/8)
TEMPERATURA.... 17°C
T.PUNKTU ROSY.. 14°C
WILGOTNOŚĆ... 83%
CIŚNIENIE..... 1024 hPa

Depesza METAR lotniska Szczecin-Goleniów

METAR = EPSC 301730Z 00000KT 1500 0500SW R31/2000 BCFG MIFG BR FEW013 SCT030 14/14 Q1024

STACJA......... EPSC - Szczecin-Goleniów (SZZ)
POMIAR......... Tue Sep 30, 19:30 CEST
TERAZ.......... Tue Sep 30, 19:51 CEST
CZAS........... 21 min temu
WIATR.......... bezwietrznie
WIDZIALNOŚĆ.. 1500 metrów
WIDZ.KIERUNEK.. w kierunku  wynosi 500 metrów
WARUNKI........ płaty mgła  & niska mgła  & zamglenie 
CHMURY......... zachmurzenie małe (3/8-4/8)
TEMPERATURA.... 14°C
T.PUNKTU ROSY.. 14°C
WILGOTNOŚĆ... 100%
CIŚNIENIE..... 1024 hPa

Depesza METAR lotniska Lublin-Świdnik

METAR = EPLB 221500Z VRB01KT 9999 FEW020 BKN080 26/23 Q1009 NOSIG

STACJA......... EPLB - Lublin-Świdnik (LUZ)
POMIAR......... Mon Aug 22, 17:00 CEST
TERAZ.......... Tue Sep 30, 19:51 CEST
CZAS........... 27242:51 godz temu
WIATR.......... zmienny z prędkością 2 km/h
WIDZIALNOŚĆ.. powyżej 10 kilometrów
CHMURY......... zachmurzenie średnie (5/8-7/8)
TEMPERATURA.... 26°C
T.PUNKTU ROSY.. 23°C
WILGOTNOŚĆ... 84%
CIŚNIENIE..... 1009 hPa
PROGNOZA....... bez nagłych zmian w ciągu 2h

Sprawdź też: prognoza pogody dla miast w Polsce!